Time;durP1;ratioP1;P1;durP2;ratioP2;P2;SDS_P1;SDS_P2;PMS_P1;PMS_P2;Temp;Humidity;BMP_temperature;BMP_pressure;BME280_temperature;BME280_humidity;BME280_pressure;Samples;Min_cycle;Max_cycle;Signal;HPM_P1;HPM_P2
2021/06/29 00:02:10;;;;;;;64.95;45.78;;;21.80;99.90;;;;;;5050171;28;20421;-74
2021/06/29 00:04:35;;;;;;;60.28;43.30;;;21.90;99.90;;;;;;5050998;28;20485;-74
2021/06/29 00:07:01;;;;;;;67.43;45.47;;;21.90;99.90;;;;;;5047003;28;20048;-74
2021/06/29 00:09:26;;;;;;;54.38;39.08;;;21.80;99.90;;;;;;5044601;28;20040;-74
2021/06/29 00:11:52;;;;;;;75.60;46.53;;;21.70;99.90;;;;;;5052580;28;20056;-74
2021/06/29 00:14:18;;;;;;;73.68;45.83;;;21.70;99.90;;;;;;5049178;28;20034;-74
2021/06/29 00:16:44;;;;;;;75.50;47.38;;;21.70;99.90;;;;;;5049599;28;20017;-73
2021/06/29 00:19:09;;;;;;;76.68;50.03;;;21.80;99.90;;;;;;5051352;28;20025;-73
2021/06/29 00:21:35;;;;;;;83.25;53.08;;;21.80;99.90;;;;;;5048199;28;20108;-73
2021/06/29 00:24:01;;;;;;;80.97;50.88;;;21.80;99.90;;;;;;5044451;28;20061;-74
2021/06/29 00:26:26;;;;;;;73.38;47.30;;;21.80;99.90;;;;;;5046750;28;20051;-74
2021/06/29 00:28:52;;;;;;;69.10;47.55;;;21.80;99.90;;;;;;5048474;28;20087;-73
2021/06/29 00:31:19;;;;;;;84.13;51.20;;;21.80;99.90;;;;;;5047191;28;20025;-73
2021/06/29 00:33:44;;;;;;;74.10;46.53;;;21.80;99.90;;;;;;5049819;28;20027;-73
2021/06/29 00:36:14;;;;;;;69.70;45.30;;;21.80;99.90;;;;;;5055403;28;20025;-73
2021/06/29 00:38:40;;;;;;;74.30;47.60;;;21.80;99.90;;;;;;5054187;28;20116;-74
2021/06/29 00:41:05;;;;;;;74.93;49.20;;;21.80;99.90;;;;;;5057282;28;20175;-73
2021/06/29 00:43:31;;;;;;;91.05;55.33;;;21.80;99.90;;;;;;5064668;28;20577;-73
2021/06/29 00:45:57;;;;;;;83.88;53.95;;;21.80;99.90;;;;;;5056075;28;20083;-73
2021/06/29 00:48:22;;;;;;;96.18;54.78;;;21.80;99.90;;;;;;5063879;28;20481;-74
2021/06/29 00:50:48;;;;;;;97.22;55.83;;;21.80;99.90;;;;;;5059719;28;20037;-74
2021/06/29 00:53:15;;;;;;;94.65;56.50;;;21.70;99.90;;;;;;5058960;28;20045;-73
2021/06/29 00:55:42;;;;;;;99.55;60.88;;;21.70;99.90;;;;;;5053134;28;20031;-73
2021/06/29 00:58:09;;;;;;;86.30;54.35;;;21.70;99.90;;;;;;5062048;28;20119;-73
2021/06/29 01:00:36;;;;;;;86.55;54.63;;;21.70;99.90;;;;;;5054985;28;20083;-74
2021/06/29 01:03:02;;;;;;;74.07;47.03;;;21.80;99.90;;;;;;5058239;28;20377;-73
2021/06/29 01:05:28;;;;;;;100.38;53.40;;;21.80;99.90;;;;;;5052139;28;20025;-73
2021/06/29 01:07:53;;;;;;;84.13;50.55;;;21.80;99.90;;;;;;5060305;28;20028;-73
2021/06/29 01:10:19;;;;;;;83.50;49.70;;;21.80;99.90;;;;;;5054720;28;20032;-73
2021/06/29 01:12:45;;;;;;;90.18;50.83;;;21.80;99.90;;;;;;5064789;28;20017;-74
2021/06/29 01:15:11;;;;;;;105.57;56.45;;;21.80;99.90;;;;;;5063091;28;20111;-73
2021/06/29 01:17:37;;;;;;;95.85;53.05;;;21.80;99.90;;;;;;5057846;28;20021;-74
2021/06/29 01:20:06;;;;;;;85.65;53.88;;;21.80;99.90;;;;;;5058002;28;20028;-74
2021/06/29 01:22:32;;;;;;;111.85;62.13;;;21.80;99.90;;;;;;5059189;28;20444;-74
2021/06/29 01:24:58;;;;;;;94.90;56.50;;;21.80;99.90;;;;;;5057281;28;20116;-73
2021/06/29 01:32:17;;;;;;;83.38;52.90;;;21.80;99.90;;;;;;5062907;28;20037;-73
2021/06/29 01:34:43;;;;;;;79.50;51.30;;;21.80;99.90;;;;;;5066032;28;20029;-73
2021/06/29 01:37:09;;;;;;;72.10;43.95;;;21.80;99.90;;;;;;5067539;28;20029;-73
2021/06/29 01:39:35;;;;;;;64.97;46.88;;;21.80;99.90;;;;;;5062227;28;20112;-72
2021/06/29 01:42:00;;;;;;;81.85;51.70;;;21.80;99.90;;;;;;5060973;28;20461;-73
2021/06/29 01:44:33;;;;;;;89.10;56.90;;;21.80;99.90;;;;;;5065923;28;20036;-73
2021/06/29 01:47:03;;;;;;;93.82;53.22;;;21.70;99.90;;;;;;5062806;28;20428;-74
2021/06/29 01:49:29;;;;;;;119.20;59.65;;;21.70;99.90;;;;;;5058820;28;20049;-74
2021/06/29 01:51:56;;;;;;;116.45;63.00;;;21.70;99.90;;;;;;5065636;28;20032;-73
2021/06/29 01:54:22;;;;;;;104.72;61.67;;;21.70;99.90;;;;;;5062544;28;20024;-74
2021/06/29 01:56:49;;;;;;;84.50;53.08;;;21.70;99.90;;;;;;5066378;28;20021;-74
2021/06/29 01:59:19;;;;;;;80.72;53.92;;;21.70;99.90;;;;;;5058689;28;20075;-74
2021/06/29 02:01:45;;;;;;;96.78;60.15;;;21.70;99.90;;;;;;5077978;28;20052;-74
2021/06/29 02:04:11;;;;;;;81.88;54.40;;;21.70;99.90;;;;;;5069774;28;20062;-74
2021/06/29 02:06:38;;;;;;;70.45;46.22;;;21.60;99.90;;;;;;5064727;28;20013;-73
2021/06/29 02:09:07;;;;;;;84.15;47.80;;;21.60;99.90;;;;;;5063530;28;20033;-73
2021/06/29 02:11:32;;;;;;;97.30;51.78;;;21.50;99.90;;;;;;5061251;28;20032;-74
2021/06/29 02:13:58;;;;;;;122.10;60.50;;;21.60;99.90;;;;;;5058433;28;20033;-74
2021/06/29 02:16:24;;;;;;;125.10;64.60;;;21.60;99.90;;;;;;5063088;28;20052;-73
2021/06/29 02:18:49;;;;;;;111.40;60.65;;;21.60;99.90;;;;;;5067704;28;20017;-74
2021/06/29 02:21:15;;;;;;;137.63;71.95;;;21.60;99.90;;;;;;5059933;28;20441;-73
2021/06/29 02:23:41;;;;;;;100.57;64.22;;;21.60;99.90;;;;;;5062963;28;20033;-74
2021/06/29 02:26:06;;;;;;;89.25;58.17;;;21.60;99.90;;;;;;5060167;28;20370;-73
2021/06/29 02:28:32;;;;;;;103.60;61.08;;;21.60;99.90;;;;;;5057166;28;20381;-73
2021/06/29 02:30:57;;;;;;;116.35;64.90;;;21.60;99.90;;;;;;5059058;28;20068;-73
2021/06/29 02:33:23;;;;;;;117.85;64.75;;;21.60;99.90;;;;;;5058381;28;20109;-73
2021/06/29 02:35:49;;;;;;;145.80;74.07;;;21.60;99.90;;;;;;5064326;28;20063;-73
2021/06/29 02:38:14;;;;;;;127.60;72.65;;;21.60;99.90;;;;;;5064702;28;20160;-73
2021/06/29 02:40:40;;;;;;;128.40;71.50;;;21.60;99.90;;;;;;5058142;28;20496;-73
2021/06/29 02:43:06;;;;;;;129.35;69.95;;;21.60;99.90;;;;;;5054057;28;20033;-74
2021/06/29 02:45:31;;;;;;;122.38;67.65;;;21.60;99.90;;;;;;5060995;28;20052;-73
2021/06/29 02:47:58;;;;;;;124.15;68.72;;;21.60;99.90;;;;;;5059359;28;20029;-73
2021/06/29 02:50:24;;;;;;;135.48;70.90;;;21.60;99.90;;;;;;5068593;28;20035;-73
2021/06/29 02:52:50;;;;;;;122.63;66.35;;;21.60;99.90;;;;;;5063356;28;20028;-73
2021/06/29 02:55:17;;;;;;;129.52;68.32;;;21.60;99.90;;;;;;5059958;28;20052;-73
2021/06/29 03:00:43;;;;;;;138.77;72.53;;;21.60;99.90;;;;;;4296055;22;20061;-73
2021/06/29 03:03:08;;;;;;;126.47;72.07;;;21.60;99.90;;;;;;5028257;22;20134;-73
2021/06/29 03:05:34;;;;;;;131.43;74.18;;;21.60;99.90;;;;;;5033062;28;20049;-71
2021/06/29 03:08:00;;;;;;;141.15;77.85;;;21.60;99.90;;;;;;5049118;28;20072;-73
2021/06/29 03:10:25;;;;;;;140.82;76.82;;;21.60;99.90;;;;;;5028074;28;20111;-73
2021/06/29 03:12:51;;;;;;;147.88;76.03;;;21.60;99.90;;;;;;5029362;28;20029;-71
2021/06/29 03:15:17;;;;;;;152.60;71.63;;;21.60;99.90;;;;;;5030918;28;20026;-71
2021/06/29 03:17:42;;;;;;;92.50;57.05;;;21.60;99.90;;;;;;5031088;28;20116;-71
2021/06/29 03:20:11;;;;;;;114.55;65.22;;;21.60;99.90;;;;;;5033545;28;20044;-73
2021/06/29 03:22:38;;;;;;;100.00;60.92;;;21.60;99.90;;;;;;5027615;28;20077;-72
2021/06/29 03:25:04;;;;;;;101.18;59.58;;;21.60;99.90;;;;;;5030826;28;20021;-73
2021/06/29 03:27:30;;;;;;;157.15;75.82;;;21.50;99.90;;;;;;5030142;28;20033;-72
2021/06/29 03:29:56;;;;;;;151.60;69.43;;;21.50;99.90;;;;;;5027643;28;20040;-71
2021/06/29 03:32:21;;;;;;;113.90;61.88;;;21.50;99.90;;;;;;5025718;28;20025;-71
2021/06/29 03:34:47;;;;;;;113.20;62.47;;;21.50;99.90;;;;;;5032411;28;20543;-72
2021/06/29 03:37:13;;;;;;;94.00;60.85;;;21.50;99.90;;;;;;5030639;28;20033;-72
2021/06/29 03:39:38;;;;;;;95.40;52.90;;;21.40;99.90;;;;;;5030470;28;20068;-72
2021/06/29 03:42:04;;;;;;;105.10;64.88;;;21.40;99.90;;;;;;5030410;28;20415;-72
2021/06/29 03:44:30;;;;;;;168.10;69.47;;;21.40;99.90;;;;;;5023847;28;20508;-72
2021/06/29 03:46:56;;;;;;;118.38;65.40;;;21.40;99.90;;;;;;5025050;28;20054;-71
2021/06/29 03:49:22;;;;;;;115.40;61.17;;;21.40;99.90;;;;;;5029902;28;20045;-72
2021/06/29 03:51:49;;;;;;;115.68;60.97;;;21.40;99.90;;;;;;5033284;28;20032;-72
2021/06/29 03:54:15;;;;;;;112.70;61.80;;;21.40;99.90;;;;;;5030782;28;20477;-72
2021/06/29 03:56:41;;;;;;;118.00;68.97;;;21.50;99.90;;;;;;5030734;28;20040;-73
2021/06/29 03:59:08;;;;;;;123.18;69.10;;;21.50;99.90;;;;;;5029484;28;20485;-72
2021/06/29 04:01:35;;;;;;;155.70;78.45;;;21.50;99.90;;;;;;5028688;28;20029;-72
2021/06/29 04:04:00;;;;;;;119.60;69.63;;;21.50;99.90;;;;;;5024946;28;20107;-72
2021/06/29 04:06:29;;;;;;;125.55;68.90;;;21.50;99.90;;;;;;5027572;28;20469;-73
2021/06/29 04:08:56;;;;;;;139.20;70.00;;;21.50;99.90;;;;;;5030449;28;20044;-72
2021/06/29 04:11:22;;;;;;;151.35;73.05;;;21.50;99.90;;;;;;5032890;28;20520;-72
2021/06/29 04:13:49;;;;;;;139.23;73.90;;;21.50;99.90;;;;;;5029903;28;20037;-72
2021/06/29 04:16:14;;;;;;;100.15;62.85;;;21.50;99.90;;;;;;5027232;28;20436;-72
2021/06/29 04:18:41;;;;;;;154.10;73.93;;;21.50;99.90;;;;;;5026423;28;20502;-72
2021/06/29 04:21:07;;;;;;;105.03;59.30;;;21.50;99.90;;;;;;5026336;28;20504;-73
2021/06/29 04:23:33;;;;;;;118.65;64.18;;;21.50;99.90;;;;;;5031013;28;20033;-72
2021/06/29 04:25:59;;;;;;;178.18;71.80;;;21.50;99.90;;;;;;5030539;28;20036;-72
2021/06/29 04:28:25;;;;;;;126.53;68.47;;;21.50;99.90;;;;;;5029096;28;20033;-74
2021/06/29 04:30:51;;;;;;;154.95;73.20;;;21.50;99.90;;;;;;5023433;28;20025;-75
2021/06/29 04:33:17;;;;;;;134.60;72.85;;;21.50;99.90;;;;;;5028580;28;20080;-73
2021/06/29 04:35:42;;;;;;;176.57;80.40;;;21.60;99.90;;;;;;5030012;28;20104;-73
2021/06/29 04:38:08;;;;;;;101.38;59.58;;;21.60;99.90;;;;;;5027295;28;20037;-72
2021/06/29 04:40:34;;;;;;;100.38;59.60;;;21.60;99.90;;;;;;5028081;28;20029;-72
2021/06/29 04:43:00;;;;;;;147.10;64.60;;;21.50;99.90;;;;;;5029638;28;20545;-73
2021/06/29 04:45:27;;;;;;;116.88;61.20;;;21.40;99.90;;;;;;5031237;28;20025;-75
2021/06/29 04:47:54;;;;;;;100.45;58.97;;;21.50;99.90;;;;;;5030109;28;20110;-72
2021/06/29 04:50:21;;;;;;;156.38;75.28;;;21.50;99.90;;;;;;5030590;28;20021;-72
2021/06/29 04:52:47;;;;;;;113.60;65.70;;;21.50;99.90;;;;;;5030481;28;20461;-72
2021/06/29 04:55:14;;;;;;;121.72;67.47;;;21.50;99.90;;;;;;5030335;28;20544;-72
2021/06/29 04:57:40;;;;;;;106.07;62.72;;;21.60;99.90;;;;;;5029193;28;20033;-73
2021/06/29 05:00:10;;;;;;;109.70;62.38;;;21.60;99.90;;;;;;5034152;28;20025;-73
2021/06/29 05:02:37;;;;;;;126.28;69.88;;;21.50;99.90;;;;;;5033661;28;20030;-73
2021/06/29 05:05:04;;;;;;;109.07;61.55;;;21.40;99.90;;;;;;5033586;28;20480;-73
2021/06/29 05:07:30;;;;;;;93.43;57.78;;;21.40;99.90;;;;;;5033491;28;20029;-73
2021/06/29 05:09:56;;;;;;;75.32;46.17;;;21.40;99.90;;;;;;5027667;28;20029;-73
2021/06/29 05:12:21;;;;;;;96.10;56.63;;;21.40;99.90;;;;;;5034182;28;20022;-74
2021/06/29 05:14:47;;;;;;;92.47;53.45;;;21.40;99.90;;;;;;5033799;28;20226;-73
2021/06/29 05:17:13;;;;;;;106.35;57.03;;;21.40;99.90;;;;;;5033279;28;20041;-75
2021/06/29 05:19:39;;;;;;;84.68;51.45;;;21.40;99.90;;;;;;5030414;28;20103;-72
2021/06/29 05:22:06;;;;;;;75.05;47.35;;;21.30;99.90;;;;;;5031036;28;20037;-74
2021/06/29 05:24:31;;;;;;;62.53;44.25;;;21.30;99.90;;;;;;5033433;28;20053;-75
2021/06/29 05:26:57;;;;;;;63.92;42.47;;;21.30;99.90;;;;;;5032602;28;20057;-73
2021/06/29 05:29:23;;;;;;;68.15;44.47;;;21.30;99.90;;;;;;5031707;28;20045;-72
2021/06/29 05:31:48;;;;;;;64.25;43.25;;;21.30;99.90;;;;;;5033532;28;20025;-72
2021/06/29 05:34:14;;;;;;;67.32;45.13;;;21.30;99.90;;;;;;5032555;28;20069;-73
2021/06/29 05:36:40;;;;;;;64.72;41.90;;;21.30;99.90;;;;;;5034062;28;20590;-72
2021/06/29 05:39:06;;;;;;;65.88;43.72;;;21.40;99.90;;;;;;5034684;28;20026;-72
2021/06/29 05:41:31;;;;;;;62.42;41.97;;;21.40;99.90;;;;;;5031779;28;20025;-72
2021/06/29 05:43:57;;;;;;;65.32;42.78;;;21.40;99.90;;;;;;5034085;28;20432;-72
2021/06/29 05:46:23;;;;;;;73.30;44.83;;;21.40;99.90;;;;;;5030998;28;20112;-73
2021/06/29 05:48:50;;;;;;;66.63;42.65;;;21.40;99.90;;;;;;5030396;28;20044;-73
2021/06/29 05:51:16;;;;;;;82.80;49.80;;;21.40;99.90;;;;;;5030667;28;20037;-74
2021/06/29 05:53:42;;;;;;;78.18;50.13;;;21.30;99.90;;;;;;5008130;28;20089;-73
2021/06/29 05:56:10;;;;;;;84.38;53.80;;;21.30;99.90;;;;;;5027293;28;20146;-74
2021/06/29 05:58:37;;;;;;;128.57;73.90;;;21.30;99.90;;;;;;5032385;28;20021;-74
2021/06/29 06:01:04;;;;;;;165.63;82.63;;;21.10;99.90;;;;;;5029681;28;20021;-73
2021/06/29 06:03:29;;;;;;;163.98;87.85;;;21.10;99.90;;;;;;5027041;28;20087;-74
2021/06/29 06:05:55;;;;;;;163.07;89.07;;;21.20;99.90;;;;;;5032368;28;20029;-74
2021/06/29 06:08:21;;;;;;;166.63;84.25;;;21.30;99.90;;;;;;5032823;28;20038;-74
2021/06/29 06:10:46;;;;;;;153.90;88.95;;;21.30;99.90;;;;;;5032542;28;20109;-74
2021/06/29 06:13:12;;;;;;;174.68;90.22;;;21.30;99.90;;;;;;5032861;28;20428;-74
2021/06/29 06:15:38;;;;;;;199.48;97.30;;;21.40;99.90;;;;;;5032855;28;20112;-73
2021/06/29 06:18:05;;;;;;;155.05;85.93;;;21.40;99.90;;;;;;5030725;28;20770;-74
2021/06/29 06:20:32;;;;;;;175.93;90.18;;;21.40;99.90;;;;;;5028451;28;20029;-74
2021/06/29 06:22:58;;;;;;;166.70;88.35;;;21.30;99.90;;;;;;5029974;28;20079;-74
2021/06/29 06:25:23;;;;;;;194.02;96.15;;;21.40;99.90;;;;;;5033414;28;20470;-74
2021/06/29 06:27:49;;;;;;;185.45;92.05;;;21.30;99.90;;;;;;5030408;28;20036;-74
2021/06/29 06:30:17;;;;;;;182.75;90.85;;;21.40;99.90;;;;;;5033760;28;20112;-73
2021/06/29 06:32:43;;;;;;;149.00;74.05;;;21.30;99.90;;;;;;5030824;28;20021;-73
2021/06/29 06:35:10;;;;;;;141.77;69.97;;;21.30;99.90;;;;;;5030191;28;20018;-72
2021/06/29 06:37:36;;;;;;;149.52;69.97;;;21.30;99.90;;;;;;5031788;28;20367;-71
2021/06/29 06:40:03;;;;;;;140.60;67.90;;;21.30;99.90;;;;;;5032893;28;20022;-72
2021/06/29 06:42:28;;;;;;;126.80;63.75;;;21.30;99.90;;;;;;5029347;28;20071;-72
2021/06/29 06:44:54;;;;;;;119.07;57.88;;;21.30;99.90;;;;;;5028338;28;20092;-72
2021/06/29 06:47:20;;;;;;;126.10;62.20;;;21.40;99.90;;;;;;5029651;28;20211;-72
2021/06/29 06:49:46;;;;;;;132.48;64.03;;;21.30;99.90;;;;;;5033264;28;20069;-73
2021/06/29 06:52:11;;;;;;;112.50;57.72;;;21.40;99.90;;;;;;5029580;28;20025;-73
2021/06/29 06:54:37;;;;;;;101.88;51.40;;;21.40;99.90;;;;;;5032675;28;20052;-72
2021/06/29 06:57:02;;;;;;;94.20;49.42;;;21.40;99.90;;;;;;5031123;28;20080;-73
2021/06/29 06:59:28;;;;;;;86.95;47.53;;;21.40;99.90;;;;;;5031704;28;20108;-73
2021/06/29 07:01:54;;;;;;;76.80;44.38;;;21.40;99.90;;;;;;5026201;28;20837;-72
2021/06/29 07:04:21;;;;;;;94.68;46.95;;;21.40;99.90;;;;;;5028785;28;20064;-73
2021/06/29 07:06:47;;;;;;;87.93;45.65;;;21.40;99.90;;;;;;5030947;28;20443;-73
2021/06/29 07:09:13;;;;;;;91.47;44.03;;;21.50;99.90;;;;;;5032317;28;20033;-73
2021/06/29 07:11:38;;;;;;;76.38;39.47;;;21.40;99.90;;;;;;5026261;28;20140;-72
2021/06/29 07:14:04;;;;;;;56.38;32.03;;;21.50;99.90;;;;;;5031543;28;20035;-73
2021/06/29 07:16:30;;;;;;;63.00;31.05;;;21.50;99.90;;;;;;5031804;28;20028;-72
2021/06/29 07:18:55;;;;;;;55.35;30.98;;;21.40;99.90;;;;;;5029392;28;20479;-73
2021/06/29 07:21:26;;;;;;;50.78;31.25;;;21.50;99.90;;;;;;5031168;28;20036;-72
2021/06/29 07:23:52;;;;;;;49.88;30.25;;;21.50;99.90;;;;;;5030890;28;20049;-73
2021/06/29 07:26:18;;;;;;;55.72;32.40;;;21.60;99.90;;;;;;5047573;28;20385;-72
2021/06/29 07:28:43;;;;;;;57.50;33.13;;;21.60;99.90;;;;;;5029578;28;20036;-73
2021/06/29 07:31:10;;;;;;;58.10;31.85;;;21.80;99.90;;;;;;5029143;28;20083;-73
2021/06/29 07:33:35;;;;;;;45.50;29.17;;;21.90;99.90;;;;;;5030441;28;20029;-72
2021/06/29 07:36:01;;;;;;;45.25;29.13;;;21.70;99.90;;;;;;5031638;28;20033;-73
2021/06/29 07:38:26;;;;;;;50.42;28.70;;;21.80;99.90;;;;;;5030315;28;20029;-72
2021/06/29 07:40:52;;;;;;;39.00;24.05;;;22.00;99.90;;;;;;5030549;28;20030;-72
2021/06/29 07:43:19;;;;;;;33.60;21.23;;;22.00;99.90;;;;;;5031768;28;20049;-73
2021/06/29 07:45:45;;;;;;;35.05;22.70;;;22.00;99.90;;;;;;5031349;28;20116;-72
2021/06/29 07:48:11;;;;;;;29.90;19.00;;;22.10;99.90;;;;;;5030404;28;20022;-72
2021/06/29 07:50:37;;;;;;;29.60;18.38;;;22.10;99.90;;;;;;5030958;28;20080;-72
2021/06/29 07:53:03;;;;;;;25.63;16.55;;;22.10;99.90;;;;;;5029585;28;20026;-72
2021/06/29 07:55:29;;;;;;;24.60;15.90;;;22.20;99.90;;;;;;5029816;28;20039;-72
2021/06/29 07:57:55;;;;;;;22.00;17.10;;;22.30;99.90;;;;;;5028694;28;20022;-72
2021/06/29 08:00:20;;;;;;;18.45;14.25;;;22.30;99.90;;;;;;5032243;28;20128;-72
2021/06/29 08:02:46;;;;;;;17.83;12.55;;;22.30;99.90;;;;;;5029678;28;20033;-72
2021/06/29 08:05:11;;;;;;;18.08;14.05;;;22.40;99.90;;;;;;5030524;28;20441;-72
2021/06/29 08:07:37;;;;;;;17.90;12.38;;;22.50;99.90;;;;;;5026771;28;20030;-73
2021/06/29 08:10:08;;;;;;;16.98;13.95;;;22.50;99.90;;;;;;5029859;28;20049;-73
2021/06/29 08:12:34;;;;;;;16.52;12.23;;;22.40;99.90;;;;;;5029715;28;20075;-73
2021/06/29 08:15:00;;;;;;;18.00;12.70;;;22.30;99.90;;;;;;5030013;28;20418;-72
2021/06/29 08:17:27;;;;;;;16.30;12.68;;;22.40;99.90;;;;;;5029462;28;20152;-72
2021/06/29 08:19:54;;;;;;;17.48;13.75;;;22.50;99.90;;;;;;5031538;28;20045;-72
2021/06/29 08:22:19;;;;;;;15.68;11.93;;;22.60;99.90;;;;;;5026279;28;20025;-72
2021/06/29 08:24:45;;;;;;;16.77;12.07;;;22.60;99.90;;;;;;5026083;28;20051;-72
2021/06/29 08:27:14;;;;;;;15.70;11.68;;;22.60;99.90;;;;;;5030215;28;20377;-73
2021/06/29 08:29:41;;;;;;;16.00;10.60;;;22.50;99.90;;;;;;5029406;28;20029;-73
2021/06/29 08:32:06;;;;;;;15.40;11.30;;;22.50;99.90;;;;;;5028221;28;20033;-74
2021/06/29 08:34:32;;;;;;;16.50;11.85;;;22.30;99.90;;;;;;5023240;28;20033;-72
2021/06/29 08:36:58;;;;;;;14.00;11.40;;;22.40;99.90;;;;;;5027350;28;20025;-73
2021/06/29 08:39:24;;;;;;;13.20;10.50;;;22.50;99.90;;;;;;5030670;28;20037;-72
2021/06/29 08:41:49;;;;;;;12.13;10.18;;;22.60;99.90;;;;;;5029943;28;20049;-72
2021/06/29 08:44:18;;;;;;;13.38;10.77;;;22.70;99.90;;;;;;5028787;28;20412;-73
2021/06/29 08:46:43;;;;;;;12.85;9.63;;;22.80;99.90;;;;;;5029729;28;20045;-72
2021/06/29 08:49:09;;;;;;;12.07;10.32;;;22.90;99.90;;;;;;5027615;28;20041;-72
2021/06/29 08:51:34;;;;;;;11.57;10.10;;;23.00;99.90;;;;;;5033290;28;20408;-73
2021/06/29 08:54:02;;;;;;;13.02;9.45;;;23.00;99.90;;;;;;5029266;28;20041;-73
2021/06/29 08:56:30;;;;;;;18.95;9.38;;;23.00;99.90;;;;;;5025575;28;20021;-73
2021/06/29 08:58:56;;;;;;;10.40;8.35;;;23.00;99.90;;;;;;5027496;28;20397;-73
2021/06/29 09:01:25;;;;;;;11.00;8.13;;;23.10;99.90;;;;;;5027561;28;20815;-73
2021/06/29 09:03:52;;;;;;;10.27;8.32;;;23.10;99.90;;;;;;5029394;28;20128;-73
2021/06/29 09:06:32;;;;;;;10.02;8.27;;;23.20;99.90;;;;;;5028383;28;20053;-73
2021/06/29 09:09:19;;;;;;;11.27;10.15;;;23.40;99.90;;;;;;5030496;28;20573;-73
2021/06/29 09:11:45;;;;;;;10.43;9.30;;;23.40;99.90;;;;;;5023863;28;20022;-72
2021/06/29 09:14:11;;;;;;;11.27;8.35;;;23.50;99.90;;;;;;5028811;28;20029;-73
2021/06/29 09:16:36;;;;;;;11.68;9.38;;;23.40;99.90;;;;;;5028926;28;20029;-72
2021/06/29 09:19:03;;;;;;;11.30;7.50;;;23.50;99.90;;;;;;5030288;28;20035;-75
2021/06/29 09:21:35;;;;;;;8.82;7.93;;;23.50;99.90;;;;;;5029434;28;20029;-74
2021/06/29 09:24:01;;;;;;;10.20;6.63;;;23.60;99.90;;;;;;5026864;28;20061;-74
2021/06/29 09:26:27;;;;;;;11.07;6.32;;;23.80;99.90;;;;;;5023391;28;20045;-74
2021/06/29 09:28:53;;;;;;;8.10;6.25;;;23.90;99.90;;;;;;5027910;28;20092;-74
2021/06/29 09:31:22;;;;;;;8.50;6.90;;;24.00;99.90;;;;;;5028122;28;20029;-74
2021/06/29 09:33:53;;;;;;;7.32;6.63;;;24.20;99.90;;;;;;5028364;28;20410;-74
2021/06/29 09:36:21;;;;;;;7.05;5.38;;;24.20;99.90;;;;;;5028260;28;20029;-73
2021/06/29 09:38:48;;;;;;;9.05;6.55;;;24.40;99.90;;;;;;5024981;28;20028;-75
2021/06/29 09:41:23;;;;;;;6.68;5.28;;;24.50;99.90;;;;;;5030273;28;20036;-72
2021/06/29 09:43:56;;;;;;;6.47;4.38;;;24.60;99.90;;;;;;5029022;28;20034;-74
2021/06/29 09:46:25;;;;;;;4.70;3.97;;;24.60;99.90;;;;;;5033961;28;20461;-75
2021/06/29 09:48:57;;;;;;;9.85;5.00;;;24.90;99.90;;;;;;5032303;28;20076;-73
2021/06/29 09:51:27;;;;;;;4.50;4.07;;;24.90;99.90;;;;;;5031536;28;20072;-74
2021/06/29 09:53:55;;;;;;;6.82;4.63;;;25.30;99.90;;;;;;5045610;28;20477;-72
2021/06/29 09:56:34;;;;;;;7.03;4.45;;;25.30;99.90;;;;;;5029771;28;20101;-72
2021/06/29 09:59:00;;;;;;;6.10;4.40;;;25.60;99.90;;;;;;5027957;28;20037;-72
2021/06/29 10:01:30;;;;;;;5.43;3.83;;;25.50;99.90;;;;;;5029495;28;20026;-75
2021/06/29 10:03:58;;;;;;;6.30;3.55;;;25.30;99.90;;;;;;5028512;28;20075;-73
2021/06/29 10:06:25;;;;;;;6.65;3.60;;;25.20;99.90;;;;;;5032000;28;20077;-75
2021/06/29 10:08:54;;;;;;;5.63;4.07;;;25.30;99.90;;;;;;5031617;28;20041;-75
2021/06/29 10:11:22;;;;;;;4.78;4.15;;;25.70;99.90;;;;;;5025992;28;20108;-75
2021/06/29 10:14:24;;;;;;;4.53;3.90;;;25.60;99.90;;;;;;5032071;28;20037;-72
2021/06/29 10:16:55;;;;;;;4.93;4.13;;;25.80;99.90;;;;;;5027329;28;20045;-72
2021/06/29 10:19:47;;;;;;;7.38;4.25;;;25.80;99.90;;;;;;5030104;28;20025;-72
2021/06/29 10:22:13;;;;;;;5.97;4.68;;;26.00;99.90;;;;;;5028178;28;20022;-72
2021/06/29 10:24:39;;;;;;;5.05;4.00;;;26.20;99.90;;;;;;5031483;28;20030;-73
2021/06/29 10:27:07;;;;;;;4.18;3.72;;;26.00;99.90;;;;;;5046893;28;20072;-74
2021/06/29 10:29:34;;;;;;;4.13;3.72;;;26.10;99.90;;;;;;5033227;28;20157;-72
2021/06/29 10:32:07;;;;;;;4.63;3.65;;;26.30;99.90;;;;;;5028862;28;20030;-73
2021/06/29 10:34:33;;;;;;;4.63;3.83;;;26.50;99.90;;;;;;5030217;28;20033;-73
2021/06/29 10:36:59;;;;;;;5.55;4.03;;;26.70;99.90;;;;;;5032477;28;20431;-73
2021/06/29 10:39:28;;;;;;;5.38;4.00;;;26.70;99.90;;;;;;5031374;28;20117;-74
2021/06/29 10:42:03;;;;;;;7.13;3.85;;;26.90;99.90;;;;;;5030468;28;20032;-74
2021/06/29 10:44:36;;;;;;;5.97;4.00;;;26.50;99.90;;;;;;5030192;28;20030;-74
2021/06/29 10:47:01;;;;;;;3.47;3.15;;;26.30;99.90;;;;;;5030148;28;20021;-75
2021/06/29 10:49:28;;;;;;;7.93;4.13;;;26.00;99.90;;;;;;5031826;28;20045;-75
2021/06/29 10:51:56;;;;;;;6.72;4.10;;;25.90;99.90;;;;;;5030036;28;20485;-75
2021/06/29 10:54:48;;;;;;;4.07;3.22;;;26.10;99.90;;;;;;5031911;28;20021;-75
2021/06/29 10:57:19;;;;;;;4.60;3.53;;;26.40;99.90;;;;;;5030791;28;20053;-74
2021/06/29 10:59:51;;;;;;;4.30;3.90;;;26.70;99.90;;;;;;5029177;28;20025;-74
2021/06/29 11:02:58;;;;;;;6.15;5.10;;;26.50;99.90;;;;;;5031561;28;20080;-75
2021/06/29 11:05:27;;;;;;;7.03;5.05;;;26.10;99.90;;;;;;5019458;28;20073;-76
2021/06/29 11:08:05;;;;;;;7.65;4.97;;;25.80;99.90;;;;;;5030851;28;20033;-75
2021/06/29 11:10:34;;;;;;;8.02;5.55;;;26.10;99.90;;;;;;5027353;28;20064;-75
2021/06/29 11:13:01;;;;;;;17.50;6.22;;;26.40;99.90;;;;;;5028339;28;20428;-75
2021/06/29 11:15:44;;;;;;;5.85;5.22;;;26.50;99.90;;;;;;5034166;28;20492;-75
2021/06/29 11:18:11;;;;;;;6.97;5.63;;;26.40;99.90;;;;;;5028039;28;20038;-76
2021/06/29 11:20:42;;;;;;;7.05;4.90;;;26.20;99.90;;;;;;5031153;28;20124;-75
2021/06/29 11:23:19;;;;;;;7.95;5.28;;;26.00;99.90;;;;;;5027017;28;20025;-75
2021/06/29 11:25:53;;;;;;;4.25;3.85;;;26.20;99.90;;;;;;5042700;28;20021;-75
2021/06/29 11:28:25;;;;;;;23.38;12.57;;;26.20;99.90;;;;;;5025377;28;20041;-75
2021/06/29 11:30:51;;;;;;;10.98;6.65;;;26.20;99.90;;;;;;5019227;28;20018;-74
2021/06/29 11:33:36;;;;;;;7.15;6.13;;;26.50;99.90;;;;;;5028534;28;20038;-76
2021/06/29 11:36:05;;;;;;;10.13;5.60;;;26.60;99.90;;;;;;5029692;28;20112;-75
2021/06/29 11:38:41;;;;;;;6.72;4.60;;;26.60;99.90;;;;;;5028065;28;20028;-76
2021/06/29 11:41:25;;;;;;;12.50;4.65;;;26.50;99.90;;;;;;5026670;28;20033;-74
2021/06/29 11:44:17;;;;;;;7.97;3.78;;;26.50;99.90;;;;;;5028009;28;20028;-74
2021/06/29 11:47:03;;;;;;;11.50;9.07;;;26.50;99.90;;;;;;5027350;28;20303;-73
2021/06/29 11:49:31;;;;;;;11.30;10.00;;;26.80;99.90;;;;;;5025641;28;20051;-74
2021/06/29 11:52:02;;;;;;;15.02;10.75;;;27.10;99.90;;;;;;5024434;28;20066;-74
2021/06/29 11:54:44;;;;;;;8.93;6.72;;;27.20;99.90;;;;;;5027123;28;20481;-74
2021/06/29 11:57:21;;;;;;;7.80;5.53;;;27.40;99.90;;;;;;5027199;28;20036;-74
2021/06/29 11:59:48;;;;;;;9.70;7.25;;;27.60;99.90;;;;;;5027031;28;20043;-73
2021/06/29 12:02:22;;;;;;;7.75;6.97;;;27.80;99.90;;;;;;5027517;28;20029;-74
2021/06/29 12:05:15;;;;;;;7.82;7.13;;;27.70;99.90;;;;;;5027383;28;20033;-74
2021/06/29 12:07:52;;;;;;;10.93;9.80;;;27.50;99.90;;;;;;5024053;28;20481;-73
2021/06/29 12:10:23;;;;;;;15.40;13.70;;;27.20;99.90;;;;;;5024982;28;20683;-74
2021/06/29 12:12:55;;;;;;;20.20;16.98;;;27.00;99.90;;;;;;5024867;28;20439;-74
2021/06/29 12:15:23;;;;;;;21.25;18.98;;;27.10;99.90;;;;;;5029630;28;20434;-74
2021/06/29 12:17:49;;;;;;;25.98;22.23;;;27.10;99.90;;;;;;5025226;28;20025;-76
2021/06/29 12:20:17;;;;;;;24.20;19.73;;;27.20;99.90;;;;;;5027609;28;21129;-76
2021/06/29 12:22:44;;;;;;;22.73;16.02;;;27.50;99.90;;;;;;5025762;28;20436;-75
2021/06/29 12:25:17;;;;;;;17.13;13.93;;;27.60;99.90;;;;;;5028139;28;20025;-75
2021/06/29 12:27:51;;;;;;;13.95;11.90;;;27.70;99.90;;;;;;5030072;28;20045;-75
2021/06/29 12:30:27;;;;;;;11.52;10.10;;;27.70;99.90;;;;;;5027490;28;20037;-75
2021/06/29 12:32:53;;;;;;;10.95;8.68;;;27.90;99.90;;;;;;5023832;28;20017;-76
2021/06/29 12:35:20;;;;;;;14.18;12.68;;;27.70;99.90;;;;;;5026582;28;20033;-76
2021/06/29 12:37:54;;;;;;;27.30;24.25;;;27.60;99.90;;;;;;5030496;28;20024;-75
2021/06/29 12:40:20;;;;;;;34.22;28.17;;;27.60;99.90;;;;;;5027852;28;20049;-75